Time;durP1;ratioP1;P1;durP2;ratioP2;P2;SDS_P1;SDS_P2;PMS_P1;PMS_P2;Temp;Humidity;BMP_temperature;BMP_pressure;BME280_temperature;BME280_humidity;BME280_pressure;Samples;Min_cycle;Max_cycle;Signal;HPM_P1;HPM_P2
2021/05/19 00:00:37;;;;;;;18.40;10.18;;;;;;;6.48;100.00;101620.25;5227666;28;20036;-85
2021/05/19 00:03:07;;;;;;;17.25;11.50;;;;;;;6.47;100.00;101621.19;5228107;28;20503;-85
2021/05/19 00:05:40;;;;;;;14.18;9.38;;;;;;;6.40;100.00;101614.66;5227891;28;20135;-85
2021/05/19 00:08:10;;;;;;;16.05;10.20;;;;;;;6.39;100.00;101618.31;5228216;28;20087;-85
2021/05/19 00:10:41;;;;;;;17.95;9.90;;;;;;;6.35;100.00;101613.31;5228082;28;20021;-85
2021/05/19 00:13:11;;;;;;;17.95;10.60;;;;;;;6.31;100.00;101618.03;5227538;28;20033;-83
2021/05/19 00:15:42;;;;;;;21.13;11.32;;;;;;;6.29;100.00;101614.66;5227577;28;20040;-85
2021/05/19 00:18:12;;;;;;;18.13;11.50;;;;;;;6.27;100.00;101615.72;5228082;28;20039;-85
2021/05/19 00:20:43;;;;;;;20.67;11.90;;;;;;;6.22;100.00;101611.63;5227508;28;20029;-85
2021/05/19 00:23:13;;;;;;;21.77;12.38;;;;;;;6.18;100.00;101606.66;5227895;28;20024;-85
2021/05/19 00:25:44;;;;;;;21.92;11.77;;;;;;;6.19;100.00;101609.19;5225914;28;20032;-84
2021/05/19 00:28:14;;;;;;;22.75;12.52;;;;;;;6.14;100.00;101598.03;5227705;28;20070;-85
2021/05/19 00:30:47;;;;;;;24.58;12.32;;;;;;;6.12;100.00;101604.44;5225867;28;20171;-84
2021/05/19 00:33:18;;;;;;;22.15;12.65;;;;;;;6.10;100.00;101604.56;5227487;28;20048;-84
2021/05/19 00:35:49;;;;;;;18.48;12.10;;;;;;;6.09;100.00;101602.03;5227282;28;20033;-85
2021/05/19 00:38:20;;;;;;;24.20;13.50;;;;;;;6.08;100.00;101595.88;5227072;28;20036;-85
2021/05/19 00:40:50;;;;;;;23.27;11.90;;;;;;;6.03;100.00;101594.53;5227133;28;20155;-84
2021/05/19 00:43:22;;;;;;;25.45;13.50;;;;;;;6.00;100.00;101589.44;5227500;28;20028;-85
2021/05/19 00:45:53;;;;;;;32.50;14.77;;;;;;;6.05;100.00;101596.09;5227053;28;20032;-85
2021/05/19 00:48:24;;;;;;;27.02;13.98;;;;;;;5.96;100.00;101589.66;5226795;28;20025;-84
2021/05/19 00:50:55;;;;;;;29.77;14.48;;;;;;;5.89;100.00;101593.72;5226456;28;20037;-85
2021/05/19 00:53:25;;;;;;;29.42;14.63;;;;;;;5.89;100.00;101592.88;5227020;28;20032;-84
2021/05/19 00:55:56;;;;;;;28.95;14.82;;;;;;;5.90;100.00;101581.25;5226867;28;20138;-85
2021/05/19 00:58:28;;;;;;;28.90;14.90;;;;;;;5.92;100.00;101582.91;5227315;28;20074;-85
2021/05/19 01:00:58;;;;;;;28.27;14.85;;;;;;;5.85;100.00;101581.63;5226048;28;20090;-84
2021/05/19 01:03:29;;;;;;;29.05;15.40;;;;;;;5.85;100.00;101581.63;5227086;28;20033;-84
2021/05/19 01:06:03;;;;;;;27.35;13.65;;;;;;;5.87;100.00;101585.03;5226785;28;20025;-85
2021/05/19 01:11:23;;;;;;;27.35;14.55;;;;;;;5.80;100.00;101578.47;5226319;28;20036;-85
2021/05/19 01:13:53;;;;;;;26.58;14.52;;;;;;;5.93;100.00;101581.91;5226760;28;20204;-85
2021/05/19 01:16:25;;;;;;;33.22;15.27;;;;;;;5.91;100.00;101581.16;5226600;28;20172;-85
2021/05/19 01:18:55;;;;;;;30.08;13.15;;;;;;;5.88;100.00;101576.06;5226826;28;20051;-84
2021/05/19 01:21:43;;;;;;;34.72;15.07;;;;;;;5.85;100.00;101570.13;5226763;28;20076;-84
2021/05/19 01:24:18;;;;;;;27.88;14.90;;;;;;;5.81;100.00;101579.31;5226887;28;20025;-85
2021/05/19 01:26:57;;;;;;;31.15;15.15;;;;;;;5.77;100.00;101577.84;5226551;28;20326;-85
2021/05/19 01:29:28;;;;;;;33.80;15.18;;;;;;;5.74;100.00;101576.28;5226233;28;20096;-85
2021/05/19 01:31:59;;;;;;;28.45;13.40;;;;;;;5.67;100.00;101581.22;5226444;28;20025;-85
2021/05/19 01:34:29;;;;;;;34.33;15.60;;;;;;;5.61;100.00;101579.00;5225949;28;20021;-85
2021/05/19 01:36:59;;;;;;;38.03;16.30;;;;;;;5.57;100.00;101579.34;5225936;28;20494;-84
2021/05/19 01:39:35;;;;;;;36.33;15.25;;;;;;;5.53;100.00;101578.75;5226216;28;20079;-85
2021/05/19 01:42:07;;;;;;;33.75;15.73;;;;;;;5.44;100.00;101574.97;5226452;28;20035;-85
2021/05/19 01:44:39;;;;;;;32.90;15.27;;;;;;;5.43;100.00;101580.41;5226474;28;20021;-84
2021/05/19 01:47:13;;;;;;;38.15;15.40;;;;;;;5.46;100.00;101578.34;5224076;28;20480;-85
2021/05/19 01:49:43;;;;;;;34.47;16.35;;;;;;;5.53;100.00;101584.06;5214176;28;20059;-83
2021/05/19 01:52:14;;;;;;;36.40;16.42;;;;;;;5.50;100.00;101583.44;5225794;28;20036;-85
2021/05/19 01:54:48;;;;;;;36.03;15.60;;;;;;;5.54;100.00;101585.78;5225360;28;20104;-84
2021/05/19 01:57:18;;;;;;;30.80;13.63;;;;;;;5.51;100.00;101582.47;5220384;28;20031;-85
2021/05/19 01:59:50;;;;;;;40.72;15.85;;;;;;;5.52;100.00;101584.16;5225235;28;20024;-84
2021/05/19 02:02:26;;;;;;;35.67;15.05;;;;;;;5.49;100.00;101582.59;5225916;28;20491;-85
2021/05/19 02:04:58;;;;;;;43.10;15.98;;;;;;;5.54;100.00;101577.78;5224210;28;20025;-85
2021/05/19 02:07:29;;;;;;;40.50;14.38;;;;;;;5.51;100.00;101582.47;5225975;28;20111;-85
2021/05/19 02:09:59;;;;;;;42.00;15.15;;;;;;;5.53;100.00;101586.75;5224558;28;20025;-85
2021/05/19 02:12:30;;;;;;;47.40;15.35;;;;;;;5.49;100.00;101584.41;5225175;28;20029;-84
2021/05/19 02:15:03;;;;;;;42.13;15.70;;;;;;;5.52;100.00;101592.16;5225277;28;20028;-85
2021/05/19 02:17:34;;;;;;;43.38;15.85;;;;;;;5.57;100.00;101582.88;5225057;28;20028;-84
2021/05/19 02:20:08;;;;;;;37.10;14.65;;;;;;;5.61;100.00;101586.16;5224763;28;20039;-85
2021/05/19 02:22:41;;;;;;;42.00;15.55;;;;;;;5.59;100.00;101590.75;5225051;28;20100;-84
2021/05/19 02:25:12;;;;;;;38.15;14.35;;;;;;;5.56;100.00;101593.63;5225006;28;20021;-85
2021/05/19 02:27:45;;;;;;;48.38;15.80;;;;;;;5.57;100.00;101588.22;5224444;28;20553;-85
2021/05/19 02:30:17;;;;;;;41.65;16.52;;;;;;;5.52;100.00;101589.50;5221616;28;20484;-85
2021/05/19 02:32:48;;;;;;;41.50;14.57;;;;;;;5.52;100.00;101600.13;5224213;28;20021;-85
2021/05/19 02:35:19;;;;;;;44.33;15.27;;;;;;;5.48;100.00;101593.38;5224461;28;20043;-84
2021/05/19 02:37:50;;;;;;;41.15;15.68;;;;;;;5.44;100.00;101592.75;5224800;28;20172;-85
2021/05/19 02:40:20;;;;;;;43.85;15.07;;;;;;;5.44;100.00;101595.41;5224184;28;20079;-83
2021/05/19 02:42:51;;;;;;;47.10;14.95;;;;;;;5.38;100.00;101601.19;5225033;28;20049;-84
2021/05/19 02:45:21;;;;;;;42.88;15.05;;;;;;;5.37;100.00;101610.13;5224254;28;20112;-84
2021/05/19 02:47:52;;;;;;;36.17;14.27;;;;;;;5.32;100.00;101598.97;5224417;28;20067;-85
2021/05/19 02:50:22;;;;;;;39.80;15.07;;;;;;;5.27;100.00;101606.44;5223418;28;20028;-82
2021/05/19 02:52:53;;;;;;;29.15;11.88;;;;;;;5.24;100.00;101601.38;5224442;28;20036;-84
2021/05/19 02:55:23;;;;;;;43.97;15.73;;;;;;;5.27;100.00;101596.69;5224497;28;20036;-85
2021/05/19 02:57:54;;;;;;;35.67;13.50;;;;;;;5.36;100.00;101601.28;5224103;28;20029;-85
2021/05/19 03:00:25;;;;;;;34.75;13.60;;;;;;;5.41;100.00;101598.28;5224208;28;20074;-85
2021/05/19 03:02:56;;;;;;;35.85;14.70;;;;;;;5.53;100.00;101607.19;5224241;28;20033;-84
2021/05/19 03:05:29;;;;;;;41.45;13.68;;;;;;;5.60;100.00;101603.94;5224558;28;20047;-84
2021/05/19 03:07:59;;;;;;;38.63;14.55;;;;;;;5.71;100.00;101595.97;5224197;28;20036;-84
2021/05/19 03:10:30;;;;;;;38.95;14.27;;;;;;;5.81;100.00;101592.63;5224079;28;20500;-85
2021/05/19 03:13:02;;;;;;;48.40;15.52;;;;;;;5.92;100.00;101604.19;5224472;28;20037;-85
2021/05/19 03:15:33;;;;;;;51.45;15.02;;;;;;;6.01;100.00;101596.44;5224239;28;20032;-83
2021/05/19 03:18:04;;;;;;;47.42;15.50;;;;;;;6.09;100.00;101602.03;5225302;28;20025;-84
2021/05/19 03:20:34;;;;;;;31.48;12.10;;;;;;;6.15;100.00;101597.06;5223814;28;20037;-84
2021/05/19 03:23:05;;;;;;;42.63;15.10;;;;;;;6.20;100.00;101600.22;5224372;28;20021;-85
2021/05/19 03:25:35;;;;;;;34.38;13.88;;;;;;;6.25;100.00;101593.69;5224096;28;20512;-82
2021/05/19 03:28:06;;;;;;;36.65;14.18;;;;;;;6.29;100.00;101596.00;5224169;28;20021;-84
2021/05/19 03:30:36;;;;;;;49.85;16.00;;;;;;;6.33;100.00;101593.97;5224361;28;20021;-83
2021/05/19 03:33:07;;;;;;;37.28;13.65;;;;;;;6.42;100.00;101593.22;5230012;28;20056;-84
2021/05/19 03:35:37;;;;;;;42.42;15.00;;;;;;;6.48;100.00;101592.75;5223967;28;20502;-84
2021/05/19 03:38:08;;;;;;;37.85;14.90;;;;;;;6.55;100.00;101595.75;5224059;28;20500;-85
2021/05/19 03:40:39;;;;;;;37.78;13.68;;;;;;;6.61;100.00;101597.94;5222353;28;20427;-84
2021/05/19 03:43:09;;;;;;;42.35;13.63;;;;;;;6.68;100.00;101592.00;5224155;28;20492;-84
2021/05/19 03:45:40;;;;;;;35.67;13.02;;;;;;;6.74;100.00;101591.50;5223745;28;20021;-85
2021/05/19 03:48:10;;;;;;;36.08;11.68;;;;;;;6.80;100.00;101591.97;5223767;28;20028;-84
2021/05/19 03:50:43;;;;;;;30.92;10.63;;;;;;;6.87;100.00;101596.69;5223348;28;20029;-85
2021/05/19 03:53:13;;;;;;;27.58;9.65;;;;;;;6.97;100.00;101596.78;5223841;28;20036;-85
2021/05/19 03:55:45;;;;;;;32.83;9.77;;;;;;;6.96;100.00;101593.28;5223732;28;20021;-84
2021/05/19 03:58:16;;;;;;;31.27;10.05;;;;;;;6.94;100.00;101591.72;5223306;28;20536;-84
2021/05/19 04:00:47;;;;;;;29.58;8.88;;;;;;;6.95;100.00;101598.75;5225919;28;20100;-85
2021/05/19 04:03:17;;;;;;;25.40;8.68;;;;;;;6.95;100.00;101594.25;5227652;28;20037;-85
2021/05/19 04:05:48;;;;;;;31.50;8.88;;;;;;;6.95;100.00;101602.25;5228247;28;20383;-85
2021/05/19 04:08:18;;;;;;;28.67;8.07;;;;;;;6.93;100.00;101595.38;5229194;28;20036;-84
2021/05/19 04:10:49;;;;;;;26.70;8.52;;;;;;;7.03;100.00;101603.44;5228651;28;20453;-84
2021/05/19 04:13:19;;;;;;;23.77;8.20;;;;;;;7.04;100.00;101597.16;5228942;28;20095;-84
2021/05/19 04:15:50;;;;;;;29.95;7.95;;;;;;;7.15;100.00;101597.97;5228365;28;20048;-84
2021/05/19 04:18:21;;;;;;;27.98;9.40;;;;;;;7.24;100.00;101604.38;5228772;28;20028;-86
2021/05/19 04:20:53;;;;;;;26.00;8.15;;;;;;;7.29;100.00;101604.00;5228211;28;20025;-84
2021/05/19 04:23:25;;;;;;;24.60;8.07;;;;;;;7.49;100.00;101600.53;5228275;28;20052;-84
2021/05/19 04:25:56;;;;;;;36.05;8.25;;;;;;;7.57;100.00;101600.72;5228376;28;20448;-84
2021/05/19 04:28:27;;;;;;;21.45;7.72;;;;;;;7.65;100.00;101597.41;5228135;28;20457;-84
2021/05/19 04:30:58;;;;;;;26.08;7.50;;;;;;;7.72;100.00;101601.25;5227789;28;20059;-84
2021/05/19 04:33:28;;;;;;;32.53;7.55;;;;;;;7.87;100.00;101602.63;5227600;28;20111;-85
2021/05/19 04:35:59;;;;;;;21.80;6.65;;;;;;;7.98;100.00;101605.25;5227957;28;20024;-84
2021/05/19 04:38:30;;;;;;;20.55;6.22;;;;;;;8.01;100.00;101596.94;5227643;28;20029;-84
2021/05/19 04:41:00;;;;;;;23.17;6.10;;;;;;;8.08;100.00;101591.06;5227592;28;20053;-84
2021/05/19 04:43:31;;;;;;;25.65;6.82;;;;;;;8.20;100.00;101598.06;5227867;28;20025;-84
2021/05/19 04:46:02;;;;;;;25.67;6.47;;;;;;;8.33;100.00;101598.66;5227606;28;20028;-84
2021/05/19 04:48:32;;;;;;;23.23;5.38;;;;;;;8.46;100.00;101598.50;5226201;28;20024;-84
2021/05/19 04:51:03;;;;;;;22.00;5.43;;;;;;;8.51;100.00;101601.59;5226834;28;20047;-86
2021/05/19 04:53:34;;;;;;;23.23;6.43;;;;;;;8.61;100.00;101593.63;5227095;28;20028;-84
2021/05/19 04:56:04;;;;;;;16.65;5.55;;;;;;;8.70;100.00;101600.84;5227337;28;20615;-84
2021/05/19 04:58:35;;;;;;;29.35;7.90;;;;;;;8.72;100.00;101602.38;5226497;28;20028;-86
2021/05/19 05:01:05;;;;;;;16.65;5.07;;;;;;;8.71;100.00;101597.19;5225380;28;20391;-84
2021/05/19 05:03:36;;;;;;;19.77;6.20;;;;;;;8.79;100.00;101598.19;5226678;28;20025;-84
2021/05/19 05:06:06;;;;;;;23.45;5.82;;;;;;;8.77;100.00;101599.31;5226660;28;20492;-84
2021/05/19 05:08:37;;;;;;;16.35;5.05;;;;;;;8.67;100.00;101596.59;5226640;28;20107;-84
2021/05/19 05:11:08;;;;;;;15.73;5.57;;;;;;;8.71;100.00;101605.19;5225166;28;20063;-84
2021/05/19 05:13:38;;;;;;;16.98;5.10;;;;;;;8.66;100.00;101604.75;5226352;28;20028;-84
2021/05/19 05:16:09;;;;;;;20.65;5.95;;;;;;;8.70;100.00;101599.00;5226579;28;20048;-84
2021/05/19 05:18:41;;;;;;;16.65;5.55;;;;;;;8.71;100.00;101603.38;5226767;28;20053;-84
2021/05/19 05:21:12;;;;;;;18.48;5.22;;;;;;;8.87;100.00;101607.38;5226218;28;20231;-85
2021/05/19 05:23:43;;;;;;;21.52;5.30;;;;;;;8.97;100.00;101606.41;5226984;28;20033;-84
2021/05/19 05:26:14;;;;;;;14.35;4.70;;;;;;;8.92;100.00;101600.63;5228514;28;20036;-84
2021/05/19 05:28:45;;;;;;;19.10;4.70;;;;;;;9.00;100.00;101606.13;5227600;28;20029;-84
2021/05/19 05:31:16;;;;;;;22.35;5.68;;;;;;;9.07;100.00;101606.41;5227902;28;20025;-85
2021/05/19 05:33:47;;;;;;;18.17;4.70;;;;;;;9.19;100.00;101607.16;5227895;28;20025;-85
2021/05/19 05:36:18;;;;;;;15.10;4.90;;;;;;;9.28;100.00;101606.31;5227973;28;20491;-84
2021/05/19 05:38:48;;;;;;;14.15;5.03;;;;;;;9.30;100.00;101609.72;5226469;28;20032;-84
2021/05/19 05:41:19;;;;;;;15.93;5.80;;;;;;;9.44;100.00;101611.09;5227786;28;20480;-84
2021/05/19 05:43:49;;;;;;;18.90;5.25;;;;;;;9.60;100.00;101614.09;5227047;28;20025;-84
2021/05/19 05:46:20;;;;;;;14.68;5.07;;;;;;;9.79;100.00;101615.94;5226472;28;20021;-85
2021/05/19 05:48:50;;;;;;;16.60;5.18;;;;;;;10.16;100.00;101607.94;5226653;28;20057;-85
2021/05/19 05:51:21;;;;;;;21.73;5.70;;;;;;;10.37;100.00;101613.13;5226253;28;20477;-85
2021/05/19 05:53:51;;;;;;;15.82;5.22;;;;;;;10.61;100.00;101612.63;5224688;28;20599;-85
2021/05/19 05:56:22;;;;;;;9.00;4.88;;;;;;;11.70;100.00;101618.00;5220801;28;20021;-85
2021/05/19 05:58:52;;;;;;;12.68;3.72;;;;;;;12.01;100.00;101616.63;5224775;28;20028;-84
2021/05/19 06:01:23;;;;;;;25.67;5.40;;;;;;;11.59;100.00;101619.91;5226609;28;20035;-84
2021/05/19 06:03:53;;;;;;;13.20;4.22;;;;;;;11.38;100.00;101619.38;5227188;28;20057;-84
2021/05/19 06:06:24;;;;;;;21.15;4.47;;;;;;;11.03;100.00;101625.56;5226550;28;20028;-85
2021/05/19 06:08:54;;;;;;;17.45;4.90;;;;;;;10.71;100.00;101615.28;5226020;28;20107;-84
2021/05/19 06:11:25;;;;;;;14.90;4.93;;;;;;;10.40;100.00;101615.53;5225235;28;20020;-85
2021/05/19 06:13:55;;;;;;;21.42;5.07;;;;;;;10.27;100.00;101615.84;5225787;28;20082;-85
2021/05/19 06:16:26;;;;;;;12.18;4.28;;;;;;;10.30;100.00;101617.41;5225310;28;20484;-85
2021/05/19 06:18:56;;;;;;;14.02;4.53;;;;;;;10.32;100.00;101618.94;5225279;28;20025;-84
2021/05/19 06:21:27;;;;;;;21.40;5.40;;;;;;;10.37;100.00;101615.81;5225345;28;20029;-84
2021/05/19 06:23:57;;;;;;;14.80;4.72;;;;;;;10.52;100.00;101621.56;5225354;28;20029;-84
2021/05/19 06:26:28;;;;;;;16.80;5.05;;;;;;;10.64;100.00;101625.72;5220649;28;20017;-85
2021/05/19 06:28:58;;;;;;;15.77;4.57;;;;;;;10.63;100.00;101619.53;5224109;28;20079;-85
2021/05/19 06:31:29;;;;;;;17.50;4.90;;;;;;;10.92;100.00;101628.44;5223927;28;20025;-85
2021/05/19 06:34:00;;;;;;;19.25;4.45;;;;;;;11.34;100.00;101623.38;5222571;28;20408;-85
2021/05/19 06:36:30;;;;;;;17.45;4.18;;;;;;;11.68;100.00;101620.84;5223735;28;20040;-85
2021/05/19 06:39:01;;;;;;;14.93;3.75;;;;;;;11.89;100.00;101625.91;5224061;28;20029;-84
2021/05/19 06:41:31;;;;;;;13.50;3.60;;;;;;;11.99;100.00;101628.50;5223133;28;20033;-84
2021/05/19 06:44:02;;;;;;;20.67;3.80;;;;;;;12.03;100.00;101624.50;5238278;28;20147;-84
2021/05/19 06:46:32;;;;;;;23.90;4.63;;;;;;;12.24;100.00;101630.38;5223878;28;20032;-84
2021/05/19 06:49:03;;;;;;;11.25;3.78;;;;;;;12.40;100.00;101633.19;5212098;28;20046;-86
2021/05/19 06:51:34;;;;;;;13.50;4.40;;;;;;;12.48;100.00;101627.00;5224213;28;20021;-87
2021/05/19 06:54:05;;;;;;;16.27;4.30;;;;;;;12.54;100.00;101626.34;5223130;28;20783;-86
2021/05/19 06:56:35;;;;;;;12.07;3.70;;;;;;;12.67;100.00;101634.00;5223377;28;20419;-87
2021/05/19 06:59:06;;;;;;;13.30;3.50;;;;;;;12.90;100.00;101631.56;5223336;28;20016;-86
2021/05/19 07:01:36;;;;;;;9.68;2.88;;;;;;;12.95;100.00;101634.59;5223026;28;20033;-87
2021/05/19 07:04:07;;;;;;;11.73;2.60;;;;;;;12.97;100.00;101638.00;5223205;28;20017;-86
2021/05/19 07:06:38;;;;;;;29.20;3.67;;;;;;;13.07;100.00;101637.88;5223333;28;20024;-86
2021/05/19 07:09:08;;;;;;;14.43;3.30;;;;;;;12.90;100.00;101634.25;5238328;28;20024;-86
2021/05/19 07:11:39;;;;;;;20.23;3.50;;;;;;;13.07;100.00;101633.31;5209074;28;20021;-85
2021/05/19 07:14:15;;;;;;;8.98;3.00;;;;;;;13.38;100.00;101639.00;5221495;28;20081;-85
2021/05/19 07:16:53;;;;;;;14.30;4.53;;;;;;;13.39;100.00;101632.59;5223480;28;20036;-85
2021/05/19 07:19:24;;;;;;;14.48;3.65;;;;;;;13.84;100.00;101622.34;5224443;28;20029;-85
2021/05/19 07:21:55;;;;;;;9.82;3.45;;;;;;;14.20;100.00;101631.75;5224294;28;20381;-85
2021/05/19 07:24:25;;;;;;;17.48;3.63;;;;;;;14.69;100.00;101628.97;5223358;28;20057;-86
2021/05/19 07:26:56;;;;;;;11.75;2.90;;;;;;;14.42;100.00;101634.78;5224171;28;20028;-84
2021/05/19 07:29:26;;;;;;;12.02;3.20;;;;;;;14.08;100.00;101627.75;5223497;28;20025;-85
2021/05/19 07:31:58;;;;;;;11.88;2.90;;;;;;;13.80;100.00;101638.00;5224281;28;20074;-84
2021/05/19 07:34:29;;;;;;;10.30;2.75;;;;;;;13.45;100.00;101629.25;5225148;28;20025;-85
2021/05/19 07:36:59;;;;;;;13.40;3.13;;;;;;;13.24;100.00;101634.22;5226731;28;20598;-85
2021/05/19 07:39:30;;;;;;;14.65;3.85;;;;;;;13.25;100.00;101627.00;5226663;28;20551;-85
2021/05/19 07:42:01;;;;;;;17.27;3.05;;;;;;;13.33;100.00;101632.41;5227429;28;20036;-84
2021/05/19 07:44:32;;;;;;;18.25;2.70;;;;;;;13.57;100.00;101627.06;5228129;28;20100;-85
2021/05/19 07:47:02;;;;;;;15.45;2.92;;;;;;;13.43;100.00;101633.94;5227577;28;20583;-85
2021/05/19 07:49:33;;;;;;;11.00;2.50;;;;;;;12.92;100.00;101641.19;5223208;28;20041;-88
2021/05/19 07:52:04;;;;;;;15.63;2.22;;;;;;;12.82;100.00;101634.25;5225431;28;20025;-87
2021/05/19 07:54:35;;;;;;;12.73;2.30;;;;;;;12.78;100.00;101651.72;5242308;28;20029;-88
2021/05/19 07:57:12;;;;;;;18.65;2.88;;;;;;;12.86;100.00;101643.69;5222582;28;20472;-87
2021/05/19 07:59:45;;;;;;;7.82;2.33;;;;;;;12.78;100.00;101649.03;5223037;28;20546;-87
2021/05/19 08:02:16;;;;;;;13.52;2.95;;;;;;;12.84;100.00;101648.38;5220499;28;20024;-88
2021/05/19 08:04:47;;;;;;;18.45;3.40;;;;;;;12.95;100.00;101651.63;5209012;28;20124;-87
2021/05/19 08:07:17;;;;;;;11.48;2.47;;;;;;;12.88;100.00;101647.88;5227077;28;20104;-88
2021/05/19 08:09:48;;;;;;;14.48;3.60;;;;;;;13.05;100.00;101654.22;5227427;28;20029;-87
2021/05/19 08:12:18;;;;;;;12.82;2.83;;;;;;;12.93;100.00;101653.63;5226166;28;20047;-87
2021/05/19 08:14:49;;;;;;;15.52;4.63;;;;;;;12.99;100.00;101654.84;5241543;28;20044;-87
2021/05/19 08:17:20;;;;;;;9.60;2.80;;;;;;;13.09;100.00;101655.53;5226828;28;20377;-87
2021/05/19 08:19:50;;;;;;;7.32;2.33;;;;;;;13.30;100.00;101652.44;5226648;28;20095;-87
2021/05/19 08:22:21;;;;;;;14.50;3.08;;;;;;;13.39;100.00;101647.91;5227031;28;20495;-88
2021/05/19 08:24:52;;;;;;;15.07;3.00;;;;;;;13.24;100.00;101654.94;5226140;28;20366;-88
2021/05/19 08:27:23;;;;;;;10.38;3.30;;;;;;;13.13;100.00;101661.47;5226322;28;20028;-89
2021/05/19 08:29:53;;;;;;;6.68;2.90;;;;;;;12.75;100.00;101655.59;5209278;28;20040;-88
2021/05/19 08:32:24;;;;;;;14.25;3.50;;;;;;;12.39;100.00;101657.53;5226831;28;20401;-88
2021/05/19 08:34:54;;;;;;;17.50;4.28;;;;;;;12.26;100.00;101657.13;5226371;28;20037;-88
2021/05/19 08:37:25;;;;;;;11.13;3.80;;;;;;;12.44;100.00;101666.81;5226047;28;20036;-88
2021/05/19 08:39:55;;;;;;;8.68;3.17;;;;;;;12.33;100.00;101661.72;5225676;28;20020;-87
2021/05/19 08:42:27;;;;;;;16.58;3.67;;;;;;;12.33;100.00;101655.50;5238285;28;20032;-88
2021/05/19 08:44:57;;;;;;;8.35;3.88;;;;;;;12.58;100.00;101654.63;5226210;28;20094;-87
2021/05/19 08:47:27;;;;;;;10.68;3.30;;;;;;;12.43;100.00;101658.94;5224063;28;20021;-88
2021/05/19 08:50:00;;;;;;;11.63;3.65;;;;;;;12.22;100.00;101661.13;5225352;28;20060;-87
2021/05/19 08:52:33;;;;;;;10.20;3.80;;;;;;;12.47;100.00;101657.59;5230556;28;20074;-87
2021/05/19 08:55:13;;;;;;;19.00;4.13;;;;;;;12.42;100.00;101659.94;5226234;28;20021;-85
2021/05/19 08:57:43;;;;;;;10.85;3.85;;;;;;;12.41;100.00;101652.88;5226589;28;20040;-85
2021/05/19 09:00:15;;;;;;;12.40;4.20;;;;;;;12.39;100.00;101655.69;5225582;28;20079;-84
2021/05/19 09:03:13;;;;;;;10.02;3.83;;;;;;;12.32;100.00;101654.66;5225992;28;20112;-85
2021/05/19 09:05:48;;;;;;;10.18;3.63;;;;;;;12.42;100.00;101657.25;5225820;28;20044;-86
2021/05/19 09:08:20;;;;;;;12.90;3.95;;;;;;;12.44;100.00;101650.69;5225617;28;20029;-86
2021/05/19 09:10:58;;;;;;;16.00;4.45;;;;;;;12.68;100.00;101649.97;5223738;28;20444;-86
2021/05/19 09:13:32;;;;;;;11.38;3.95;;;;;;;12.98;100.00;101645.06;5224245;28;20057;-86
2021/05/19 09:16:04;;;;;;;13.25;4.00;;;;;;;13.13;100.00;101646.13;5225640;28;20029;-86
2021/05/19 09:18:57;;;;;;;8.93;4.25;;;;;;;13.51;100.00;101652.00;5225785;28;20053;-85
2021/05/19 09:21:33;;;;;;;14.95;4.32;;;;;;;13.83;100.00;101639.56;5212936;28;20033;-85
2021/05/19 09:24:09;;;;;;;12.07;3.40;;;;;;;14.43;100.00;101648.09;5225528;28;20387;-85
2021/05/19 09:27:06;;;;;;;8.55;3.42;;;;;;;14.63;100.00;101640.47;5225440;28;20427;-85
2021/05/19 09:29:38;;;;;;;9.60;3.08;;;;;;;14.87;100.00;101644.13;5213431;28;20086;-85
2021/05/19 09:32:12;;;;;;;10.90;3.55;;;;;;;14.99;100.00;101634.59;5225265;28;20365;-86
2021/05/19 09:34:45;;;;;;;10.38;3.25;;;;;;;15.18;100.00;101636.03;5225487;28;20064;-85
2021/05/19 09:37:25;;;;;;;7.95;2.65;;;;;;;15.82;100.00;101644.75;5225093;28;20025;-85
2021/05/19 09:39:57;;;;;;;6.43;2.15;;;;;;;15.37;100.00;101634.75;5224391;28;20025;-85
2021/05/19 09:42:36;;;;;;;6.68;1.30;;;;;;;14.95;100.00;101633.25;5224822;28;20098;-85
2021/05/19 09:45:22;;;;;;;4.57;1.92;;;;;;;14.91;100.00;101631.91;5225275;28;20032;-86
2021/05/19 09:47:54;;;;;;;7.80;2.13;;;;;;;14.54;100.00;101630.72;5225112;28;20370;-85
2021/05/19 09:50:40;;;;;;;10.15;2.20;;;;;;;14.80;100.00;101633.16;5224192;28;20140;-86
2021/05/19 09:53:13;;;;;;;6.07;2.03;;;;;;;14.84;100.00;101630.94;5224573;28;20029;-85
2021/05/19 09:55:50;;;;;;;6.60;1.50;;;;;;;15.07;100.00;101623.75;5224506;28;20029;-85
2021/05/19 09:58:32;;;;;;;10.60;1.92;;;;;;;15.25;100.00;101637.81;5224219;28;20360;-85
2021/05/19 10:01:04;;;;;;;8.05;2.03;;;;;;;15.04;100.00;101629.50;5224779;28;20035;-85
2021/05/19 10:03:36;;;;;;;6.68;1.65;;;;;;;15.15;100.00;101629.09;5225088;28;20059;-85
2021/05/19 10:08:37;;;;;;;12.27;1.48;;;;;;;15.57;100.00;101630.56;5224684;28;20083;-85
2021/05/19 10:11:08;;;;;;;10.20;1.33;;;;;;;15.35;100.00;101634.06;5223683;28;20032;-85
2021/05/19 10:13:41;;;;;;;3.50;1.30;;;;;;;15.44;100.00;101633.00;5224274;28;20033;-85
2021/05/19 10:16:20;;;;;;;7.07;1.38;;;;;;;15.14;100.00;101630.13;5224997;28;20025;-85
2021/05/19 10:18:56;;;;;;;10.48;1.73;;;;;;;14.56;100.00;101628.69;5237611;28;20035;-85
2021/05/19 10:21:31;;;;;;;7.43;2.00;;;;;;;14.59;100.00;101631.03;5215054;28;20087;-85
2021/05/19 10:24:05;;;;;;;6.93;1.85;;;;;;;14.53;100.00;101625.50;5224016;28;20021;-85
2021/05/19 10:27:03;;;;;;;5.38;2.03;;;;;;;14.77;100.00;101634.34;5223919;28;20033;-86
2021/05/19 10:29:46;;;;;;;6.75;1.88;;;;;;;15.29;100.00;101632.91;5223647;28;20017;-85
2021/05/19 10:32:22;;;;;;;5.90;1.00;;;;;;;15.67;100.00;101636.59;5223815;28;20456;-86
2021/05/19 10:34:55;;;;;;;3.58;1.00;;;;;;;15.70;100.00;101647.03;5223640;28;20037;-86
2021/05/19 10:37:27;;;;;;;3.80;1.50;;;;;;;15.79;100.00;101637.00;5223818;28;20024;-86
2021/05/19 10:40:07;;;;;;;4.25;1.15;;;;;;;16.10;100.00;101633.34;5223572;28;20032;-86
2021/05/19 10:42:43;;;;;;;5.03;1.60;;;;;;;15.93;100.00;101630.78;5210696;28;20060;-87
2021/05/19 10:45:15;;;;;;;3.10;1.40;;;;;;;15.71;100.00;101635.22;5223655;28;20094;-86
2021/05/19 10:47:47;;;;;;;3.80;1.70;;;;;;;15.26;100.00;101634.13;5223467;28;20032;-86
2021/05/19 10:50:29;;;;;;;4.57;1.85;;;;;;;15.27;100.00;101622.28;5223089;28;20025;-85
2021/05/19 10:58:36;;;;;;;3.63;1.30;;;;;;;15.35;100.00;101629.50;5224012;28;20033;-85
2021/05/19 11:01:09;;;;;;;2.45;0.82;;;;;;;15.64;100.00;101628.00;5223697;28;20680;-86
2021/05/19 11:04:01;;;;;;;1.90;1.17;;;;;;;15.59;100.00;101627.66;5223705;28;20059;-86
2021/05/19 11:06:57;;;;;;;4.13;1.40;;;;;;;15.41;100.00;101622.53;5224129;28;20750;-86
2021/05/19 11:09:31;;;;;;;4.03;1.95;;;;;;;15.60;100.00;101622.06;5221294;28;20025;-86
2021/05/19 11:12:21;;;;;;;5.97;1.58;;;;;;;15.64;100.00;101622.59;5223696;28;20028;-86
2021/05/19 11:14:58;;;;;;;3.25;1.60;;;;;;;15.62;100.00;101611.91;5224035;28;20076;-86
2021/05/19 11:17:51;;;;;;;5.50;1.50;;;;;;;15.74;100.00;101613.19;5223786;28;20103;-86
2021/05/19 11:20:21;;;;;;;2.97;1.50;;;;;;;15.84;100.00;101604.00;5212111;28;20489;-86
2021/05/19 11:22:52;;;;;;;4.45;1.75;;;;;;;15.97;100.00;101606.94;5213641;28;20044;-86
2021/05/19 11:25:22;;;;;;;3.47;2.13;;;;;;;16.05;100.00;101607.66;5223096;28;20527;-86
2021/05/19 11:28:00;;;;;;;4.32;2.55;;;;;;;16.16;100.00;101606.38;5223932;28;20560;-86
2021/05/19 11:30:31;;;;;;;6.85;2.17;;;;;;;16.40;100.00;101601.75;5223425;28;20062;-86
2021/05/19 11:33:10;;;;;;;3.42;1.85;;;;;;;16.65;100.00;101596.88;5223609;28;20029;-86
2021/05/19 11:35:41;;;;;;;5.78;2.33;;;;;;;17.16;100.00;101605.03;5223524;28;20029;-86
2021/05/19 11:38:13;;;;;;;5.50;1.88;;;;;;;17.43;100.00;101603.47;5223495;28;20035;-86
2021/05/19 11:40:45;;;;;;;3.83;2.00;;;;;;;17.80;97.45;101597.81;5223327;28;20029;-86
2021/05/19 11:43:19;;;;;;;5.13;2.40;;;;;;;18.08;100.00;101594.28;5223166;28;20461;-86
2021/05/19 11:45:57;;;;;;;3.63;2.00;;;;;;;17.86;90.00;101601.59;5223602;28;20025;-86